Airfield :
LOGIN :

Register | Disclaimer

   EN    FR    IT 

 










Legend :    VFR   Marginal VFR   IFR   Intensive IFR   Very Intensive IFR
Visi :
Ceiling :
>= 8 km
>= 3000ft
5 to 8 km
1000 to 3000 ft
1500m to 5 km
500 to 1000 ft
800 to 1500m
200 to 500 ft
< 800m
< 200 ft
Symbols :   Thunderstorms  Fog  Heavy snow  Heavy precipitations  Wind > 20 kt
SIGMETs :     Misc.  Thunderstorms  Icing  Turbulence  Mountain Waves  Volcanic Ashes







- Airport Elevation : 56 ft
- IATA code : BZR
- Download approach charts


LFMU - Beziers / Vias

CURRENT METAR :
  • 192000Z AUTO 10011KT 9999 ///CB 18/16 Q1013 BECMG BKN020

EXPIRED METARs :
  • 191930Z AUTO 10010KT 9999 FEW021/// BKN058/// OVC100/// ///CB 18/17 Q1013 BECMG BKN020
  • 191900Z AUTO 10012KT 9999 FEW019 SCT044 BKN062 18/17 Q1013 BECMG VRB02KT
  • 191830Z AUTO 10011KT 9999 SCT031/// BKN043/// BKN060/// ///TCU 18/17 Q1013 BECMG BKN020
  • 191800Z AUTO 09011KT 9999 SCT015/// OVC032/// ///CB 18/17 Q1012 TEMPO VRB15G25KT SHRA BECMG BKN020
  • 191730Z AUTO 08009KT 9999 BKN016 OVC037 18/17 Q1012 TEMPO VRB15G25KT SHRA BKN007TCU

TAF TAF LFMU
Valid from the 19 at 15:00 until the 20 at 15:00 UTC


191400Z 1915/2015 12015KT 9999 BKN020
TEMPO 1915/1919 VRB15G25KT SHRA BKN007TCU
BECMG 1919/1921 VRB02KT
TEMPO 2003/2012 VRB15G25KT SHRA BKN013TCU
TEMPO 2012/2015 BKN008
ATIS : +33 4 67 90 88 88
No reported NOTAMs for that airfield.
1 SIGMET reported for the Marseille FIR (LFMM) :
 
Embedded thunderstorms
LFMM SIGMET 14 VALID 191900/192100 LFPW
LFMM MARSEILLE FIR/UIR EMBD TS OBS WI N3900 E00700 - N3900 E00430 - N4200 E00430 - N4215 E00230 - N4345 E00245 - N4345 E00300 - N4115 E00600 TOP FL370 STNR NC=



MET'MAP, your aeronautical weather chart ! - Copyright ORBIFLY December 2007 - Disclaimer

ORBIFLY MET'MAP TEAM :

Programming & Development : Alexandra Zaïnal
Concept & Development : Baudouin d'Aumeries
Co-Development & Prog : Marc-Olivier Méhu
Technical & hardware support : Manuel Goepfert

Contact : metmap@orbifly.com




SOURCES & CREDITS :

   NOAA